createdAt,value
2023-05-03T00:00:21.653Z,11.78
2023-05-03T00:03:10.043Z,11.79
2023-05-03T00:05:38.535Z,11.82
2023-05-03T00:08:07.116Z,11.83
2023-05-03T00:10:35.325Z,11.83
2023-05-03T00:13:03.641Z,11.83
2023-05-03T00:15:31.804Z,11.80
2023-05-03T00:17:59.917Z,11.74
2023-05-03T00:20:28.057Z,11.70
2023-05-03T00:22:56.533Z,11.66
2023-05-03T00:25:24.819Z,11.65
2023-05-03T00:27:53.174Z,11.64
2023-05-03T00:30:21.524Z,11.63
2023-05-03T00:32:51.843Z,11.60
2023-05-03T00:35:20.710Z,11.55
2023-05-03T00:37:48.850Z,11.49
2023-05-03T00:40:18.867Z,11.41
2023-05-03T00:42:47.189Z,11.30
2023-05-03T00:45:15.347Z,11.21
2023-05-03T00:47:44.024Z,11.15
2023-05-03T00:50:12.693Z,11.08
2023-05-03T00:52:41.270Z,10.97
2023-05-03T00:55:10.469Z,10.90
2023-05-03T00:57:38.641Z,10.84
2023-05-03T01:00:10.924Z,10.87
2023-05-03T01:02:39.684Z,10.90
2023-05-03T01:05:09.149Z,10.90
2023-05-03T01:08:01.896Z,10.89
2023-05-03T01:10:40.057Z,10.83
2023-05-03T01:13:22.741Z,10.74
2023-05-03T01:16:08.539Z,10.58
2023-05-03T01:18:44.338Z,10.45
2023-05-03T01:21:15.661Z,10.34
2023-05-03T01:24:07.547Z,10.22
2023-05-03T01:26:36.383Z,10.09
2023-05-03T01:29:07.009Z,9.99
2023-05-03T01:31:53.671Z,9.87
2023-05-03T01:34:27.926Z,9.74
2023-05-03T01:37:00.105Z,9.60
2023-05-03T01:39:51.932Z,9.44
2023-05-03T01:42:21.018Z,9.26
2023-05-03T01:44:50.500Z,9.14
2023-05-03T01:47:19.107Z,9.00
2023-05-03T01:49:47.284Z,8.88
2023-05-03T01:52:16.478Z,8.75
2023-05-03T01:54:45.882Z,8.59
2023-05-03T01:57:14.057Z,8.46
2023-05-03T01:59:43.354Z,8.36
2023-05-03T02:02:11.530Z,8.26
2023-05-03T02:04:39.935Z,8.13
2023-05-03T02:07:08.186Z,7.99
2023-05-03T02:09:36.464Z,7.86
2023-05-03T02:12:04.888Z,7.70
2023-05-03T02:14:33.328Z,7.61
2023-05-03T02:17:03.621Z,7.50
2023-05-03T02:19:31.923Z,7.42
2023-05-03T02:22:02.447Z,7.36
2023-05-03T02:24:31.369Z,7.26
2023-05-03T02:26:59.623Z,7.14
2023-05-03T02:29:27.887Z,7.05
2023-05-03T02:31:56.780Z,6.97
2023-05-03T02:34:24.953Z,6.89
2023-05-03T02:36:53.520Z,6.79
2023-05-03T02:39:22.218Z,6.68
2023-05-03T02:41:51.215Z,6.57
2023-05-03T02:44:19.391Z,6.52
2023-05-03T02:46:47.613Z,6.46
2023-05-03T02:49:17.373Z,6.41
2023-05-03T02:51:46.167Z,6.35
2023-05-03T02:54:14.337Z,6.31
2023-05-03T02:56:42.428Z,6.27
2023-05-03T02:59:10.783Z,6.20
2023-05-03T03:01:39.312Z,6.16
2023-05-03T03:04:07.653Z,6.14
2023-05-03T03:06:36.213Z,6.11
2023-05-03T03:09:05.133Z,6.09
2023-05-03T03:11:33.518Z,6.09
2023-05-03T03:14:01.824Z,6.12
2023-05-03T03:16:30.171Z,6.23
2023-05-03T03:18:58.334Z,6.84
2023-05-03T03:21:29.181Z,7.80
2023-05-03T03:23:57.564Z,8.72
2023-05-03T03:26:26.385Z,9.57
2023-05-03T03:28:55.013Z,10.33
2023-05-03T03:31:23.859Z,11.04
2023-05-03T03:33:52.176Z,11.88
2023-05-03T03:36:21.379Z,12.61
2023-05-03T03:38:49.750Z,13.29
2023-05-03T03:41:18.127Z,13.94
2023-05-03T03:43:46.741Z,14.43
2023-05-03T03:46:17.517Z,15.07
2023-05-03T03:48:46.539Z,15.51
2023-05-03T03:51:14.713Z,16.02
2023-05-03T03:53:45.407Z,16.66
2023-05-03T03:56:14.133Z,17.18
2023-05-03T03:58:42.629Z,17.61
2023-05-03T04:01:12.395Z,17.54
2023-05-03T04:03:40.782Z,17.88
2023-05-03T04:06:09.416Z,17.75
2023-05-03T04:08:37.877Z,18.09
2023-05-03T04:11:12.601Z,18.43
2023-05-03T04:13:45.294Z,18.89
2023-05-03T04:16:13.711Z,19.51
2023-05-03T04:18:42.927Z,20.26
2023-05-03T04:21:11.207Z,20.67
2023-05-03T04:23:39.564Z,21.12
2023-05-03T04:26:12.232Z,21.61
2023-05-03T04:28:49.756Z,21.92
2023-05-03T04:31:21.305Z,21.92
2023-05-03T04:33:52.024Z,22.42
2023-05-03T04:36:25.640Z,22.35
2023-05-03T04:38:55.064Z,21.72
2023-05-03T04:41:24.790Z,21.83
2023-05-03T04:43:53.358Z,22.20
2023-05-03T04:46:21.968Z,22.02
2023-05-03T04:48:51.619Z,22.13
2023-05-03T04:51:19.754Z,21.80
2023-05-03T04:53:48.261Z,21.83
2023-05-03T04:56:20.633Z,21.91
2023-05-03T04:58:48.843Z,22.28
2023-05-03T05:01:17.165Z,22.76
2023-05-03T05:03:46.805Z,22.48
2023-05-03T05:06:20.050Z,23.07
2023-05-03T05:08:48.179Z,23.23
2023-05-03T05:11:16.483Z,22.96
2023-05-03T05:13:45.828Z,23.41
2023-05-03T05:16:14.168Z,23.55
2023-05-03T05:18:44.035Z,23.99
2023-05-03T05:21:13.672Z,24.26
2023-05-03T05:23:41.934Z,23.87
2023-05-03T05:26:10.394Z,24.39
2023-05-03T05:28:39.164Z,24.58
2023-05-03T05:31:07.767Z,24.73
2023-05-03T05:33:36.733Z,24.92
2023-05-03T05:36:06.383Z,24.90
2023-05-03T05:38:35.488Z,24.87
2023-05-03T05:41:05.269Z,24.18
2023-05-03T05:43:34.814Z,24.55
2023-05-03T05:46:03.885Z,24.92
2023-05-03T05:48:32.288Z,24.88
2023-05-03T05:51:02.258Z,25.23
2023-05-03T05:53:30.594Z,24.10
2023-05-03T05:56:01.275Z,24.66
2023-05-03T05:58:30.820Z,25.10
2023-05-03T06:01:01.485Z,24.80
2023-05-03T06:03:30.260Z,24.96
2023-05-03T06:05:58.893Z,25.05
2023-05-03T06:08:28.132Z,25.73
2023-05-03T06:10:56.550Z,25.87
2023-05-03T06:13:25.916Z,25.35
2023-05-03T06:15:54.242Z,25.43
2023-05-03T06:18:22.424Z,26.02
2023-05-03T06:20:51.077Z,26.01
2023-05-03T06:23:20.548Z,25.53
2023-05-03T06:25:48.844Z,25.03
2023-05-03T06:28:18.134Z,25.37
2023-05-03T06:30:50.381Z,25.32
2023-05-03T06:33:18.609Z,25.44
2023-05-03T06:35:49.446Z,24.53
2023-05-03T06:38:19.242Z,24.30
2023-05-03T06:40:48.337Z,24.60
2023-05-03T06:43:16.700Z,24.68
2023-05-03T06:45:53.041Z,24.46
2023-05-03T06:48:22.133Z,23.96
2023-05-03T06:50:50.968Z,22.89
2023-05-03T06:53:19.302Z,23.05
2023-05-03T06:55:47.356Z,22.80
2023-05-03T06:58:16.838Z,22.55
2023-05-03T07:00:45.824Z,22.41
2023-05-03T07:03:14.132Z,22.10
2023-05-03T07:05:42.330Z,22.04
2023-05-03T07:08:10.427Z,21.83
2023-05-03T07:10:38.505Z,21.80
2023-05-03T07:13:06.631Z,21.92
2023-05-03T07:15:34.838Z,21.88
2023-05-03T07:18:03.678Z,21.72
2023-05-03T07:20:31.777Z,21.71
2023-05-03T07:23:01.858Z,21.63
2023-05-03T07:25:30.728Z,21.91
2023-05-03T07:27:59.072Z,21.96
2023-05-03T07:30:27.219Z,22.00
2023-05-03T07:32:55.734Z,21.91
2023-05-03T07:35:24.124Z,21.75
2023-05-03T07:37:52.352Z,21.90
2023-05-03T07:40:20.689Z,22.01
2023-05-03T07:42:51.257Z,22.13
2023-05-03T07:45:21.134Z,21.93
2023-05-03T07:47:49.248Z,21.73
2023-05-03T07:50:17.496Z,21.77
2023-05-03T07:52:45.700Z,22.02
2023-05-03T07:55:18.707Z,22.04
2023-05-03T07:57:46.859Z,22.15
2023-05-03T08:00:17.981Z,22.13
2023-05-03T08:02:46.311Z,22.05
2023-05-03T08:05:15.193Z,22.04
2023-05-03T08:07:44.548Z,22.03
2023-05-03T08:10:13.249Z,21.98
2023-05-03T08:12:42.156Z,21.84
2023-05-03T08:15:10.449Z,21.76
2023-05-03T08:17:46.206Z,21.86
2023-05-03T08:20:15.752Z,22.06
2023-05-03T08:22:45.438Z,22.41
2023-05-03T08:25:13.604Z,22.64
2023-05-03T08:27:41.718Z,22.59
2023-05-03T08:30:10.775Z,22.44
2023-05-03T08:32:39.480Z,22.67
2023-05-03T08:35:08.315Z,22.68
2023-05-03T08:37:43.576Z,22.53
2023-05-03T08:40:13.754Z,22.58
2023-05-03T08:42:43.498Z,22.49
2023-05-03T08:45:14.928Z,22.59
2023-05-03T08:47:45.439Z,22.71
2023-05-03T08:50:16.750Z,22.81
2023-05-03T08:52:45.703Z,22.82
2023-05-03T08:55:13.906Z,22.82
2023-05-03T08:57:42.388Z,22.86
2023-05-03T09:00:12.946Z,22.58
2023-05-03T09:02:42.262Z,22.61
2023-05-03T09:05:16.729Z,22.71
2023-05-03T09:08:11.050Z,22.56
2023-05-03T09:10:41.653Z,22.45
2023-05-03T09:13:11.080Z,22.56
2023-05-03T09:15:39.617Z,22.70
2023-05-03T09:18:11.540Z,22.83
2023-05-03T09:20:42.093Z,22.73
2023-05-03T09:23:10.649Z,22.72
2023-05-03T09:25:42.842Z,22.77
2023-05-03T09:28:11.158Z,22.87
2023-05-03T09:30:39.365Z,22.91
2023-05-03T09:33:08.532Z,23.08
2023-05-03T09:35:36.892Z,23.00
2023-05-03T09:38:06.232Z,22.98
2023-05-03T09:40:34.580Z,22.98
2023-05-03T09:43:10.452Z,22.93
2023-05-03T09:45:39.411Z,22.98
2023-05-03T09:48:08.861Z,23.09
2023-05-03T09:50:37.589Z,23.01
2023-05-03T09:53:07.342Z,22.91
2023-05-03T09:55:37.388Z,22.94
2023-05-03T09:58:06.692Z,22.76
2023-05-03T10:00:38.396Z,22.88
2023-05-03T10:03:18.796Z,22.79
2023-05-03T10:05:49.170Z,22.55
2023-05-03T10:08:33.624Z,22.30
2023-05-03T10:11:04.357Z,22.29
2023-05-03T10:13:32.599Z,22.25
2023-05-03T10:16:06.687Z,22.25
2023-05-03T10:18:43.261Z,22.40
2023-05-03T10:21:29.966Z,22.35
2023-05-03T10:24:17.074Z,22.42
2023-05-03T10:26:50.110Z,22.39
2023-05-03T10:29:34.099Z,22.33
2023-05-03T10:32:03.568Z,22.38
2023-05-03T10:34:34.070Z,22.48
2023-05-03T10:37:03.704Z,22.58
2023-05-03T10:39:32.094Z,22.60
2023-05-03T10:42:08.495Z,22.48
2023-05-03T10:44:54.452Z,22.55
2023-05-03T10:47:24.562Z,22.66
2023-05-03T10:50:25.900Z,22.67
2023-05-03T10:52:54.086Z,22.83
2023-05-03T10:55:25.096Z,22.79
2023-05-03T10:57:55.848Z,22.90
2023-05-03T11:00:28.977Z,22.92
2023-05-03T11:03:12.363Z,22.60
2023-05-03T11:05:40.948Z,22.76
2023-05-03T11:08:11.268Z,22.51
2023-05-03T11:10:40.672Z,22.68
2023-05-03T11:13:09.149Z,22.79
2023-05-03T11:15:37.348Z,22.91
2023-05-03T11:18:08.155Z,22.99
2023-05-03T11:20:37.266Z,23.00
2023-05-03T11:23:07.584Z,22.75
2023-05-03T11:25:36.163Z,22.66
2023-05-03T11:28:05.053Z,22.72
2023-05-03T11:30:37.705Z,22.67
2023-05-03T11:33:07.098Z,22.52
2023-05-03T11:35:35.684Z,22.51
2023-05-03T11:38:03.924Z,22.52
2023-05-03T11:40:32.266Z,22.52
2023-05-03T11:43:01.251Z,22.42
2023-05-03T11:45:32.982Z,22.41
2023-05-03T11:48:02.114Z,22.38
2023-05-03T11:50:46.764Z,22.36
2023-05-03T11:53:16.061Z,22.33
2023-05-03T11:55:48.240Z,22.29
2023-05-03T11:58:27.852Z,22.31
2023-05-03T12:00:57.374Z,22.24
2023-05-03T12:03:32.252Z,22.16
2023-05-03T12:06:02.838Z,22.20
2023-05-03T12:08:36.126Z,22.05
2023-05-03T12:11:07.274Z,22.14
2023-05-03T12:13:40.233Z,22.08
2023-05-03T12:16:13.826Z,21.99
2023-05-03T12:18:51.766Z,21.94
2023-05-03T12:23:55.718Z,21.79
2023-05-03T12:26:25.944Z,21.88
2023-05-03T12:28:56.874Z,21.93
2023-05-03T12:31:28.927Z,22.00
2023-05-03T12:34:11.461Z,22.12
2023-05-03T12:36:48.776Z,22.13
2023-05-03T12:39:20.098Z,22.11
2023-05-03T12:44:23.630Z,22.16
2023-05-03T12:46:53.469Z,22.28
2023-05-03T12:49:23.612Z,22.27
2023-05-03T12:52:11.132Z,22.29
2023-05-03T12:54:42.102Z,22.23
2023-05-03T12:57:15.445Z,22.24
2023-05-03T12:59:51.947Z,22.26
2023-05-03T13:04:58.768Z,22.14
2023-05-03T13:07:31.827Z,22.03
2023-05-03T13:12:33.622Z,22.02
2023-05-03T13:15:03.946Z,22.13
2023-05-03T13:17:32.761Z,22.04
2023-05-03T13:20:01.585Z,22.07
2023-05-03T13:22:29.786Z,21.89
2023-05-03T13:24:58.025Z,21.97
2023-05-03T13:27:26.603Z,21.97
2023-05-03T13:29:54.820Z,21.87
2023-05-03T13:32:23.062Z,21.85
2023-05-03T13:34:51.328Z,21.80
2023-05-03T13:37:19.922Z,21.64
2023-05-03T13:39:48.024Z,21.46
2023-05-03T13:42:16.170Z,21.54
2023-05-03T13:44:47.938Z,21.56
2023-05-03T13:47:16.530Z,21.52
2023-05-03T13:49:44.746Z,21.57
2023-05-03T13:52:12.896Z,21.54
2023-05-03T13:54:42.590Z,21.66
2023-05-03T13:57:10.859Z,21.71
2023-05-03T13:59:38.993Z,21.74
2023-05-03T14:02:08.008Z,21.75
2023-05-03T14:04:36.394Z,21.59
2023-05-03T14:07:06.712Z,21.52
2023-05-03T14:09:39.575Z,21.55
2023-05-03T14:12:07.865Z,21.58
2023-05-03T14:14:36.773Z,21.61
2023-05-03T14:17:05.385Z,21.67
2023-05-03T14:19:35.854Z,21.58
2023-05-03T14:22:04.548Z,21.47
2023-05-03T14:24:32.679Z,21.43
2023-05-03T14:27:01.702Z,21.27
2023-05-03T14:29:29.963Z,21.13
2023-05-03T14:31:58.565Z,21.10
2023-05-03T14:34:26.865Z,21.03
2023-05-03T14:36:55.429Z,20.97
2023-05-03T14:39:23.502Z,20.95
2023-05-03T14:41:51.585Z,20.88
2023-05-03T14:44:20.659Z,20.89
2023-05-03T14:46:48.839Z,20.92
2023-05-03T14:49:17.836Z,20.95
2023-05-03T14:51:46.103Z,21.01
2023-05-03T14:54:14.225Z,20.88
2023-05-03T14:56:42.694Z,20.91
2023-05-03T14:59:10.918Z,20.76
2023-05-03T15:01:39.289Z,20.76
2023-05-03T15:04:11.138Z,20.75
2023-05-03T15:06:39.753Z,20.70
2023-05-03T15:09:09.464Z,20.70
2023-05-03T15:11:37.615Z,20.71
2023-05-03T15:14:06.233Z,20.63
2023-05-03T15:16:37.032Z,20.62
2023-05-03T15:19:07.390Z,20.57
2023-05-03T15:21:49.500Z,20.50
2023-05-03T15:24:18.568Z,20.44
2023-05-03T15:26:49.741Z,20.42
2023-05-03T15:29:17.939Z,20.36
2023-05-03T15:31:46.386Z,20.32
2023-05-03T15:34:14.578Z,20.27
2023-05-03T15:36:42.786Z,20.23
2023-05-03T15:39:10.913Z,20.20
2023-05-03T15:41:39.793Z,20.17
2023-05-03T15:44:09.994Z,20.12
2023-05-03T15:46:39.614Z,20.06
2023-05-03T15:49:09.706Z,20.02
2023-05-03T15:51:37.977Z,19.91
2023-05-03T15:54:06.124Z,19.89
2023-05-03T15:56:34.378Z,19.73
2023-05-03T15:59:02.446Z,19.74
2023-05-03T16:01:30.507Z,19.62
2023-05-03T16:03:58.665Z,19.55
2023-05-03T16:06:28.539Z,19.50
2023-05-03T16:08:56.642Z,19.41
2023-05-03T16:11:24.808Z,19.33
2023-05-03T16:13:52.912Z,19.28
2023-05-03T16:16:21.251Z,19.23
2023-05-03T16:18:49.559Z,19.18
2023-05-03T16:21:17.707Z,19.14
2023-05-03T16:23:46.654Z,19.10
2023-05-03T16:26:14.907Z,19.05
2023-05-03T16:28:42.964Z,18.97
2023-05-03T16:31:13.436Z,18.93
2023-05-03T16:33:42.020Z,18.87
2023-05-03T16:36:10.966Z,18.80
2023-05-03T16:38:39.080Z,18.75
2023-05-03T16:41:07.573Z,18.69
2023-05-03T16:43:35.669Z,18.59
2023-05-03T16:46:04.164Z,18.51
2023-05-03T16:48:34.027Z,18.41
2023-05-03T16:51:02.473Z,18.38
2023-05-03T16:53:31.319Z,18.32
2023-05-03T16:56:00.066Z,18.22
2023-05-03T16:58:28.279Z,18.07
2023-05-03T17:00:56.530Z,18.06
2023-05-03T17:03:25.589Z,18.00
2023-05-03T17:05:54.724Z,17.92
2023-05-03T17:08:22.803Z,17.84
2023-05-03T17:10:51.179Z,17.83
2023-05-03T17:13:19.344Z,17.76
2023-05-03T17:15:48.213Z,17.73
2023-05-03T17:18:16.878Z,17.69
2023-05-03T17:20:44.965Z,17.61
2023-05-03T17:23:13.097Z,17.54
2023-05-03T17:25:42.961Z,17.45
2023-05-03T17:28:11.389Z,17.34
2023-05-03T17:30:39.482Z,17.24
2023-05-03T17:33:08.189Z,17.15
2023-05-03T17:35:36.842Z,17.07
2023-05-03T17:38:05.991Z,17.05
2023-05-03T17:40:35.232Z,17.06
2023-05-03T17:43:03.835Z,17.04
2023-05-03T17:45:31.925Z,17.02
2023-05-03T17:48:00.367Z,17.03
2023-05-03T17:50:28.547Z,17.00
2023-05-03T17:52:57.569Z,16.97
2023-05-03T17:55:26.581Z,16.93
2023-05-03T17:57:55.920Z,16.90
2023-05-03T18:00:25.522Z,16.88
2023-05-03T18:02:53.734Z,16.85
2023-05-03T18:05:21.902Z,16.81
2023-05-03T18:07:49.985Z,16.79
2023-05-03T18:10:18.254Z,16.74
2023-05-03T18:12:46.518Z,16.69
2023-05-03T18:15:16.037Z,16.65
2023-05-03T18:17:44.483Z,16.60
2023-05-03T18:20:13.851Z,16.56
2023-05-03T18:22:42.413Z,16.52
2023-05-03T18:25:10.636Z,16.47
2023-05-03T18:27:39.353Z,16.44
2023-05-03T18:30:08.190Z,16.41
2023-05-03T18:32:36.388Z,16.33
2023-05-03T18:35:05.374Z,16.28
2023-05-03T18:37:33.624Z,16.23
2023-05-03T18:40:01.962Z,16.17
2023-05-03T18:42:32.099Z,16.13
2023-05-03T18:45:00.297Z,16.09
2023-05-03T18:47:29.008Z,16.06
2023-05-03T18:49:57.275Z,16.04
2023-05-03T18:52:26.016Z,15.98
2023-05-03T18:54:54.399Z,15.94
2023-05-03T18:57:22.809Z,15.91
2023-05-03T19:00:00.091Z,15.88
2023-05-03T19:02:31.638Z,15.84
2023-05-03T19:05:00.679Z,15.83
2023-05-03T19:07:29.066Z,15.82
2023-05-03T19:09:57.948Z,15.80
2023-05-03T19:12:26.181Z,15.78
2023-05-03T19:14:54.353Z,15.78
2023-05-03T19:17:22.769Z,15.76
2023-05-03T19:19:51.598Z,15.73
2023-05-03T19:22:19.861Z,15.68
2023-05-03T19:24:49.429Z,15.66
2023-05-03T19:27:17.795Z,15.65
2023-05-03T19:29:47.486Z,15.63
2023-05-03T19:32:16.062Z,15.58
2023-05-03T19:34:44.159Z,15.55
2023-05-03T19:37:12.321Z,15.50
2023-05-03T19:39:40.600Z,15.45
2023-05-03T19:42:09.209Z,15.42
2023-05-03T19:44:37.965Z,15.39
2023-05-03T19:47:06.095Z,15.33
2023-05-03T19:49:34.342Z,15.29
2023-05-03T19:52:04.665Z,15.26
2023-05-03T19:54:33.457Z,15.21
2023-05-03T19:57:06.191Z,15.15
2023-05-03T19:59:34.790Z,15.10
2023-05-03T20:02:03.366Z,15.06
2023-05-03T20:04:31.963Z,15.01
2023-05-03T20:07:00.162Z,14.94
2023-05-03T20:09:28.299Z,14.91
2023-05-03T20:11:58.958Z,14.86
2023-05-03T20:14:27.736Z,14.82
2023-05-03T20:16:57.113Z,14.78
2023-05-03T20:19:26.043Z,14.77
2023-05-03T20:21:54.170Z,14.74
2023-05-03T20:24:22.720Z,14.72
2023-05-03T20:26:51.894Z,14.66
2023-05-03T20:29:20.572Z,14.62
2023-05-03T20:31:51.257Z,14.58
2023-05-03T20:34:19.802Z,14.50
2023-05-03T20:36:48.250Z,14.47
2023-05-03T20:39:16.399Z,14.41
2023-05-03T20:41:44.801Z,14.33
2023-05-03T20:44:13.941Z,14.29
2023-05-03T20:46:42.037Z,14.25
2023-05-03T20:49:10.527Z,14.22
2023-05-03T20:51:38.825Z,14.24
2023-05-03T20:54:06.919Z,14.22
2023-05-03T20:56:35.054Z,14.21
2023-05-03T20:59:03.755Z,14.17
2023-05-03T21:01:32.235Z,14.15
2023-05-03T21:04:00.554Z,14.12
2023-05-03T21:06:28.825Z,14.08
2023-05-03T21:08:57.059Z,14.05
2023-05-03T21:11:25.232Z,14.04
2023-05-03T21:13:53.403Z,14.04
2023-05-03T21:16:21.634Z,13.98
2023-05-03T21:18:49.859Z,13.97
2023-05-03T21:21:18.035Z,13.94
2023-05-03T21:23:46.214Z,13.93
2023-05-03T21:26:14.687Z,13.89
2023-05-03T21:28:42.962Z,13.80
2023-05-03T21:31:11.250Z,13.80
2023-05-03T21:33:39.612Z,13.80
2023-05-03T21:36:08.090Z,13.77
2023-05-03T21:38:36.369Z,13.73
2023-05-03T21:41:05.874Z,13.69
2023-05-03T21:43:35.521Z,13.65
2023-05-03T21:46:08.198Z,13.61
2023-05-03T21:48:37.528Z,13.56
2023-05-03T21:51:05.669Z,13.53
2023-05-03T21:53:35.724Z,13.49
2023-05-03T21:56:04.740Z,13.46
2023-05-03T21:58:32.920Z,13.43
2023-05-03T22:01:01.822Z,13.39
2023-05-03T22:03:30.103Z,13.31
2023-05-03T22:05:58.462Z,13.28
2023-05-03T22:08:26.540Z,13.26
2023-05-03T22:10:56.367Z,13.22
2023-05-03T22:13:24.516Z,13.19
2023-05-03T22:15:52.878Z,13.16
2023-05-03T22:18:21.179Z,13.13
2023-05-03T22:20:49.445Z,13.08
2023-05-03T22:23:18.024Z,13.08
2023-05-03T22:25:46.206Z,13.03
2023-05-03T22:28:14.369Z,13.02
2023-05-03T22:30:42.760Z,13.00
2023-05-03T22:33:11.169Z,13.00
2023-05-03T22:35:39.518Z,12.99
2023-05-03T22:38:07.896Z,12.98
2023-05-03T22:40:36.808Z,12.92
2023-05-03T22:43:05.168Z,12.92
2023-05-03T22:45:33.363Z,12.86
2023-05-03T22:48:01.645Z,12.82
2023-05-03T22:50:29.990Z,12.83
2023-05-03T22:52:58.173Z,12.80
2023-05-03T22:55:26.338Z,12.77
2023-05-03T22:57:54.609Z,12.74
2023-05-03T23:00:23.089Z,12.74
2023-05-03T23:02:51.384Z,12.73
2023-05-03T23:05:20.167Z,12.70
2023-05-03T23:07:48.877Z,12.66
2023-05-03T23:10:17.119Z,12.63
2023-05-03T23:12:45.558Z,12.59
2023-05-03T23:15:13.873Z,12.57
2023-05-03T23:17:42.088Z,12.56
2023-05-03T23:20:11.805Z,12.54
2023-05-03T23:22:41.156Z,12.51
2023-05-03T23:25:09.922Z,12.49
2023-05-03T23:27:38.240Z,12.47
2023-05-03T23:30:07.626Z,12.45
2023-05-03T23:32:36.643Z,12.39
2023-05-03T23:35:06.129Z,12.39
2023-05-03T23:37:34.297Z,12.38
2023-05-03T23:40:03.921Z,12.36
2023-05-03T23:42:32.542Z,12.33
2023-05-03T23:45:00.868Z,12.32
2023-05-03T23:47:29.098Z,12.31
2023-05-03T23:49:57.338Z,12.27
2023-05-03T23:52:25.688Z,12.25
2023-05-03T23:54:54.130Z,12.18
2023-05-03T23:57:22.220Z,12.15
2023-05-03T23:59:50.422Z,12.14
